createdAt,value
2022-08-27T00:02:19.910Z,2.10
2022-08-27T00:04:46.763Z,2.95
2022-08-27T00:07:13.448Z,1.85
2022-08-27T00:09:40.275Z,2.25
2022-08-27T00:12:08.385Z,2.13
2022-08-27T00:14:35.753Z,1.40
2022-08-27T00:17:02.442Z,1.92
2022-08-27T00:19:28.751Z,2.70
2022-08-27T00:21:55.791Z,1.95
2022-08-27T00:24:22.262Z,2.30
2022-08-27T00:26:50.326Z,2.10
2022-08-27T00:29:16.750Z,2.00
2022-08-27T00:31:43.161Z,2.00
2022-08-27T00:34:12.904Z,2.00
2022-08-27T00:36:39.806Z,2.58
2022-08-27T00:39:06.127Z,2.30
2022-08-27T00:41:33.334Z,1.92
2022-08-27T00:44:00.207Z,2.17
2022-08-27T00:46:28.115Z,2.17
2022-08-27T00:48:56.877Z,1.95
2022-08-27T00:51:24.107Z,2.10
2022-08-27T00:53:51.673Z,2.42
2022-08-27T00:56:21.934Z,2.00
2022-08-27T00:58:49.611Z,2.75
2022-08-27T01:01:17.301Z,2.30
2022-08-27T01:03:46.384Z,2.58
2022-08-27T01:06:16.295Z,2.10
2022-08-27T01:08:45.660Z,2.50
2022-08-27T01:11:12.157Z,1.77
2022-08-27T01:14:00.226Z,2.08
2022-08-27T01:16:33.566Z,2.40
2022-08-27T01:19:00.839Z,1.85
2022-08-27T01:21:31.536Z,2.75
2022-08-27T01:24:03.695Z,1.92
2022-08-27T01:26:30.969Z,2.30
2022-08-27T01:28:57.959Z,2.38
2022-08-27T01:31:24.669Z,1.70
2022-08-27T01:34:01.720Z,1.92
2022-08-27T01:36:28.609Z,2.15
2022-08-27T01:38:55.750Z,2.03
2022-08-27T01:41:24.246Z,2.13
2022-08-27T01:43:51.518Z,2.00
2022-08-27T01:46:24.774Z,2.22
2022-08-27T01:48:51.192Z,3.25
2022-08-27T01:51:17.876Z,2.30
2022-08-27T01:53:44.191Z,2.45
2022-08-27T01:56:11.388Z,2.10
2022-08-27T01:58:38.609Z,2.17
2022-08-27T02:01:07.200Z,2.47
2022-08-27T02:03:36.418Z,2.00
2022-08-27T02:06:06.915Z,2.10
2022-08-27T02:08:33.331Z,2.10
2022-08-27T02:11:00.154Z,1.83
2022-08-27T02:13:26.803Z,2.22
2022-08-27T02:15:53.166Z,2.08
2022-08-27T02:18:19.522Z,2.30
2022-08-27T02:20:47.294Z,2.10
2022-08-27T02:23:14.162Z,2.30
2022-08-27T02:25:41.480Z,1.95
2022-08-27T02:28:08.011Z,1.92
2022-08-27T02:30:34.959Z,1.90
2022-08-27T02:33:02.494Z,2.38
2022-08-27T02:35:30.209Z,1.98
2022-08-27T02:37:56.946Z,2.65
2022-08-27T02:40:23.429Z,2.53
2022-08-27T02:42:50.124Z,1.95
2022-08-27T02:45:17.163Z,2.20
2022-08-27T02:47:43.704Z,2.40
2022-08-27T02:50:10.555Z,2.40
2022-08-27T02:52:36.911Z,2.42
2022-08-27T02:55:04.187Z,1.90
2022-08-27T02:57:31.543Z,2.72
2022-08-27T03:00:04.406Z,2.85
2022-08-27T03:02:31.064Z,2.38
2022-08-27T03:04:57.527Z,2.33
2022-08-27T03:07:24.321Z,2.33
2022-08-27T03:09:51.156Z,2.50
2022-08-27T03:12:17.467Z,3.20
2022-08-27T03:14:44.539Z,2.05
2022-08-27T03:17:29.622Z,2.88
2022-08-27T03:19:55.952Z,2.60
2022-08-27T03:22:22.273Z,2.50
2022-08-27T03:24:48.569Z,2.75
2022-08-27T03:27:15.346Z,2.75
2022-08-27T03:29:41.696Z,2.47
2022-08-27T03:32:08.088Z,2.45
2022-08-27T03:34:34.426Z,2.85
2022-08-27T03:37:01.366Z,2.45
2022-08-27T03:39:27.663Z,3.25
2022-08-27T03:41:55.690Z,2.78
2022-08-27T03:44:25.024Z,2.58
2022-08-27T03:46:51.738Z,2.92
2022-08-27T03:49:20.693Z,2.63
2022-08-27T03:51:48.379Z,2.55
2022-08-27T03:54:14.795Z,2.60
2022-08-27T03:56:41.610Z,2.50
2022-08-27T03:59:08.159Z,2.55
2022-08-27T04:01:34.733Z,3.90
2022-08-27T04:04:01.164Z,2.67
2022-08-27T04:06:28.158Z,2.78
2022-08-27T04:08:54.464Z,2.95
2022-08-27T04:11:22.023Z,3.08
2022-08-27T04:13:48.358Z,2.67
2022-08-27T04:16:14.773Z,2.47
2022-08-27T04:18:41.087Z,3.00
2022-08-27T04:21:11.359Z,2.20
2022-08-27T04:23:39.090Z,2.38
2022-08-27T04:26:06.311Z,2.63
2022-08-27T04:28:36.532Z,2.13
2022-08-27T04:31:05.362Z,2.70
2022-08-27T04:33:32.369Z,3.78
2022-08-27T04:35:59.628Z,2.88
2022-08-27T04:38:26.015Z,2.58
2022-08-27T04:41:10.796Z,2.67
2022-08-27T04:43:37.210Z,2.58
2022-08-27T04:46:03.595Z,2.67
2022-08-27T04:48:30.210Z,2.63
2022-08-27T04:50:56.548Z,2.70
2022-08-27T04:53:23.331Z,2.88
2022-08-27T04:55:53.618Z,2.53
2022-08-27T04:58:20.674Z,2.65
2022-08-27T05:00:48.521Z,2.40
2022-08-27T05:03:16.166Z,2.63
2022-08-27T05:05:43.464Z,2.90
2022-08-27T05:08:12.986Z,2.33
2022-08-27T05:10:43.773Z,2.53
2022-08-27T05:13:10.161Z,2.42
2022-08-27T05:15:36.561Z,2.95
2022-08-27T05:18:03.301Z,3.00
2022-08-27T05:20:31.163Z,3.17
2022-08-27T05:22:57.588Z,2.85
2022-08-27T05:25:24.526Z,2.63
2022-08-27T05:27:50.959Z,3.03
2022-08-27T05:30:17.460Z,2.47
2022-08-27T05:32:44.224Z,2.92
2022-08-27T05:35:15.115Z,3.10
2022-08-27T05:37:42.743Z,2.38
2022-08-27T05:40:09.481Z,3.10
2022-08-27T05:42:35.857Z,2.60
2022-08-27T05:45:02.166Z,2.67
2022-08-27T05:47:29.182Z,2.70
2022-08-27T05:49:55.572Z,3.90
2022-08-27T05:52:21.895Z,2.80
2022-08-27T05:54:48.270Z,3.38
2022-08-27T05:57:14.613Z,3.25
2022-08-27T05:59:59.759Z,3.03
2022-08-27T06:02:26.131Z,3.08
2022-08-27T06:04:53.416Z,2.92
2022-08-27T06:07:19.871Z,3.20
2022-08-27T06:09:46.183Z,2.55
2022-08-27T06:12:12.523Z,3.42
2022-08-27T06:14:38.833Z,3.20
2022-08-27T06:17:06.203Z,3.45
2022-08-27T06:19:34.639Z,3.80
2022-08-27T06:22:10.514Z,2.95
2022-08-27T06:24:39.372Z,3.15
2022-08-27T06:27:05.950Z,3.78
2022-08-27T06:29:34.989Z,3.15
2022-08-27T06:32:01.342Z,2.90
2022-08-27T06:34:27.655Z,3.90
2022-08-27T06:36:54.409Z,3.00
2022-08-27T06:39:20.850Z,3.45
2022-08-27T06:41:49.478Z,3.08
2022-08-27T06:44:19.665Z,3.40
2022-08-27T06:46:47.017Z,4.18
2022-08-27T06:49:14.613Z,3.28
2022-08-27T06:51:44.654Z,3.05
2022-08-27T06:54:12.500Z,3.22
2022-08-27T06:56:40.051Z,2.85
2022-08-27T06:59:11.483Z,2.67
2022-08-27T07:01:40.012Z,3.20
2022-08-27T07:04:07.778Z,2.70
2022-08-27T07:06:34.270Z,2.60
2022-08-27T07:09:00.649Z,3.22
2022-08-27T07:11:28.444Z,2.05
2022-08-27T07:13:55.101Z,1.65
2022-08-27T07:16:23.432Z,3.10
2022-08-27T07:18:51.550Z,2.00
2022-08-27T07:21:19.958Z,2.17
2022-08-27T07:23:46.323Z,1.83
2022-08-27T07:26:14.021Z,1.80
2022-08-27T07:28:41.103Z,2.15
2022-08-27T07:31:09.349Z,1.85
2022-08-27T07:33:36.943Z,1.88
2022-08-27T07:36:04.008Z,1.92
2022-08-27T07:38:30.547Z,1.67
2022-08-27T07:40:56.842Z,2.10
2022-08-27T07:43:41.595Z,1.77
2022-08-27T07:46:08.142Z,1.65
2022-08-27T07:48:36.592Z,1.77
2022-08-27T07:51:05.302Z,1.75
2022-08-27T07:53:32.775Z,1.70
2022-08-27T07:56:03.338Z,1.88
2022-08-27T07:58:30.009Z,1.48
2022-08-27T08:00:56.682Z,1.85
2022-08-27T08:03:22.985Z,1.98
2022-08-27T08:05:50.464Z,1.90
2022-08-27T08:08:16.766Z,1.50
2022-08-27T08:10:43.547Z,1.90
2022-08-27T08:13:09.859Z,1.60
2022-08-27T08:15:36.370Z,1.63
2022-08-27T08:18:02.690Z,1.75
2022-08-27T08:20:56.577Z,1.38
2022-08-27T08:23:15.401Z,1.80
2022-08-27T08:25:42.434Z,1.95
2022-08-27T08:28:09.246Z,1.52
2022-08-27T08:30:35.789Z,2.00
2022-08-27T08:33:02.255Z,1.65
2022-08-27T08:35:34.998Z,1.90
2022-08-27T08:38:07.831Z,1.95
2022-08-27T08:40:36.411Z,1.38
2022-08-27T08:43:05.167Z,1.50
2022-08-27T08:45:34.518Z,1.30
2022-08-27T08:48:00.791Z,1.67
2022-08-27T08:50:30.712Z,1.40
2022-08-27T08:53:00.710Z,2.33
2022-08-27T08:55:47.180Z,1.25
2022-08-27T08:58:16.346Z,1.73
2022-08-27T09:00:43.785Z,1.40
2022-08-27T09:03:12.136Z,2.13
2022-08-27T09:05:40.702Z,1.38
2022-08-27T09:08:31.804Z,1.48
2022-08-27T09:10:58.273Z,1.83
2022-08-27T09:13:30.482Z,1.53
2022-08-27T09:15:58.462Z,1.70
2022-08-27T09:18:25.104Z,1.40
2022-08-27T09:21:27.472Z,1.95
2022-08-27T09:23:54.390Z,1.80
2022-08-27T09:26:22.169Z,1.33
2022-08-27T09:29:06.924Z,1.67
2022-08-27T09:31:36.345Z,1.45
2022-08-27T09:34:04.834Z,1.35
2022-08-27T09:36:31.210Z,2.13
2022-08-27T09:38:58.734Z,1.40
2022-08-27T09:41:28.223Z,2.10
2022-08-27T09:43:58.930Z,2.13
2022-08-27T09:46:26.942Z,1.90
2022-08-27T09:48:54.474Z,1.98
2022-08-27T09:51:23.731Z,1.55
2022-08-27T09:53:56.058Z,1.70
2022-08-27T09:56:33.354Z,1.37
2022-08-27T09:59:07.605Z,1.42
2022-08-27T10:01:48.730Z,1.85
2022-08-27T10:04:16.853Z,1.48
2022-08-27T10:06:47.282Z,1.75
2022-08-27T10:09:17.184Z,1.50
2022-08-27T10:11:50.382Z,1.33
2022-08-27T10:14:26.281Z,1.48
2022-08-27T10:17:05.421Z,1.52
2022-08-27T10:19:37.646Z,1.50
2022-08-27T10:22:28.473Z,2.30
2022-08-27T10:25:03.911Z,1.27
2022-08-27T10:27:30.190Z,1.70
2022-08-27T10:29:59.183Z,1.75
2022-08-27T10:32:57.993Z,1.70
2022-08-27T10:35:35.878Z,1.50
2022-08-27T10:38:24.675Z,2.03
2022-08-27T10:41:14.180Z,2.13
2022-08-27T10:43:48.081Z,1.92
2022-08-27T10:46:17.548Z,1.40
2022-08-27T10:48:46.715Z,1.70
2022-08-27T10:51:25.917Z,1.63
2022-08-27T10:54:10.288Z,1.27
2022-08-27T10:56:40.121Z,1.40
2022-08-27T10:59:12.558Z,2.05
2022-08-27T11:01:54.269Z,1.95
2022-08-27T11:04:30.168Z,1.80
2022-08-27T11:07:04.886Z,2.05
2022-08-27T11:09:37.086Z,2.00
2022-08-27T11:14:50.706Z,1.83
2022-08-27T11:17:20.471Z,1.48
2022-08-27T11:20:03.085Z,1.50
2022-08-27T11:22:47.735Z,1.50
2022-08-27T11:25:26.755Z,1.10
2022-08-27T11:27:53.770Z,1.80
2022-08-27T11:30:28.807Z,2.35
2022-08-27T11:33:14.051Z,1.67
2022-08-27T11:35:59.332Z,1.60
2022-08-27T11:38:38.011Z,1.27
2022-08-27T11:41:23.307Z,1.63
2022-08-27T11:43:50.005Z,1.73
2022-08-27T11:46:26.287Z,1.60
2022-08-27T11:48:57.184Z,2.53
2022-08-27T11:51:34.443Z,2.08
2022-08-27T11:54:10.807Z,1.70
2022-08-27T11:56:41.933Z,1.65
2022-08-27T11:59:22.313Z,1.52
2022-08-27T12:01:50.185Z,1.83
2022-08-27T12:04:32.487Z,1.70
2022-08-27T12:09:25.183Z,1.50
2022-08-27T12:12:08.217Z,1.60
2022-08-27T12:14:43.467Z,1.85
2022-08-27T12:17:09.790Z,1.60
2022-08-27T12:19:48.611Z,1.45
2022-08-27T12:22:20.899Z,1.38
2022-08-27T12:24:55.963Z,2.83
2022-08-27T12:27:24.189Z,2.08
2022-08-27T12:29:50.517Z,1.60
2022-08-27T12:32:26.162Z,1.38
2022-08-27T12:34:59.515Z,1.80
2022-08-27T12:37:28.094Z,1.25
2022-08-27T12:39:57.553Z,1.80
2022-08-27T12:42:23.882Z,1.50
2022-08-27T12:44:54.707Z,1.88
2022-08-27T12:47:21.075Z,1.13
2022-08-27T12:49:55.517Z,1.58
2022-08-27T12:52:40.647Z,1.60
2022-08-27T12:55:10.898Z,1.50
2022-08-27T12:57:57.510Z,1.80
2022-08-27T13:00:26.638Z,1.73
2022-08-27T13:03:08.462Z,1.58
2022-08-27T13:05:39.828Z,1.30
2022-08-27T13:08:18.569Z,1.30
2022-08-27T13:10:45.790Z,1.60
2022-08-27T13:13:16.174Z,1.65
2022-08-27T13:15:45.181Z,1.95
2022-08-27T13:18:11.909Z,1.95
2022-08-27T13:20:40.117Z,1.63
2022-08-27T13:23:08.120Z,1.80
2022-08-27T13:25:35.396Z,1.67
2022-08-27T13:28:16.136Z,2.17
2022-08-27T13:30:45.261Z,1.73
2022-08-27T13:33:17.948Z,1.63
2022-08-27T13:35:45.491Z,2.10
2022-08-27T13:38:12.409Z,1.85
2022-08-27T13:40:51.375Z,1.80
2022-08-27T13:43:18.072Z,1.50
2022-08-27T13:45:48.614Z,2.00
2022-08-27T13:48:16.690Z,1.95
2022-08-27T13:50:47.722Z,1.52
2022-08-27T13:53:37.456Z,1.60
2022-08-27T13:56:03.779Z,1.50
2022-08-27T13:58:32.283Z,1.85
2022-08-27T14:01:12.258Z,1.60
2022-08-27T14:03:47.165Z,1.55
2022-08-27T14:06:45.855Z,1.60
2022-08-27T14:09:24.099Z,1.75
2022-08-27T14:11:58.213Z,1.60
2022-08-27T14:14:24.985Z,1.85
2022-08-27T14:16:58.738Z,1.70
2022-08-27T14:19:27.022Z,1.38
2022-08-27T14:21:53.440Z,1.88
2022-08-27T14:24:19.847Z,1.48
2022-08-27T14:26:50.473Z,1.85
2022-08-27T14:29:17.693Z,1.33
2022-08-27T14:31:44.624Z,1.00
2022-08-27T14:34:11.475Z,1.50
2022-08-27T14:36:38.724Z,1.83
2022-08-27T14:39:05.381Z,1.90
2022-08-27T14:41:33.390Z,1.63
2022-08-27T14:43:59.773Z,1.85
2022-08-27T14:46:28.011Z,1.88
2022-08-27T14:48:55.135Z,1.40
2022-08-27T14:51:28.635Z,1.48
2022-08-27T14:53:55.790Z,1.30
2022-08-27T14:56:22.722Z,1.83
2022-08-27T14:58:49.070Z,1.52
2022-08-27T15:01:16.647Z,1.50
2022-08-27T15:03:44.714Z,1.67
2022-08-27T15:06:11.082Z,1.77
2022-08-27T15:08:37.429Z,1.50
2022-08-27T15:11:06.194Z,1.80
2022-08-27T15:13:32.570Z,2.08
2022-08-27T15:15:58.953Z,1.40
2022-08-27T15:18:25.337Z,1.50
2022-08-27T15:20:51.678Z,1.30
2022-08-27T15:23:18.007Z,1.73
2022-08-27T15:25:44.964Z,1.80
2022-08-27T15:28:11.530Z,1.20
2022-08-27T15:30:38.078Z,2.30
2022-08-27T15:33:05.967Z,1.55
2022-08-27T15:35:33.176Z,1.63
2022-08-27T15:37:59.628Z,2.10
2022-08-27T15:40:27.123Z,2.00
2022-08-27T15:42:56.484Z,1.50
2022-08-27T15:45:27.530Z,1.20
2022-08-27T15:47:54.354Z,1.83
2022-08-27T15:50:20.928Z,1.98
2022-08-27T15:52:48.633Z,2.00
2022-08-27T15:55:19.869Z,2.60
2022-08-27T15:57:46.561Z,2.00
2022-08-27T16:00:13.214Z,1.73
2022-08-27T16:02:40.629Z,1.85
2022-08-27T16:05:07.326Z,1.90
2022-08-27T16:07:33.629Z,2.05
2022-08-27T16:09:59.997Z,1.75
2022-08-27T16:12:27.284Z,2.10
2022-08-27T16:14:54.400Z,1.85
2022-08-27T16:17:21.123Z,2.53
2022-08-27T16:19:47.534Z,1.90
2022-08-27T16:22:14.611Z,2.47
2022-08-27T16:24:40.905Z,1.77
2022-08-27T16:27:07.263Z,2.30
2022-08-27T16:29:33.646Z,2.00
2022-08-27T16:32:01.449Z,2.15
2022-08-27T16:34:28.368Z,2.20
2022-08-27T16:36:55.299Z,2.00
2022-08-27T16:39:21.687Z,1.67
2022-08-27T16:41:48.102Z,2.58
2022-08-27T16:44:14.972Z,2.03
2022-08-27T16:46:41.365Z,2.30
2022-08-27T16:49:26.570Z,2.08
2022-08-27T16:51:52.895Z,1.83
2022-08-27T16:54:19.476Z,2.35
2022-08-27T16:56:46.285Z,2.10
2022-08-27T16:59:15.782Z,2.45
2022-08-27T17:01:42.463Z,2.53
2022-08-27T17:04:18.137Z,2.33
2022-08-27T17:06:54.732Z,2.88
2022-08-27T17:09:21.277Z,2.45
2022-08-27T17:11:52.790Z,1.98
2022-08-27T17:14:19.123Z,2.40
2022-08-27T17:16:45.501Z,1.90
2022-08-27T17:19:17.090Z,2.10
2022-08-27T17:21:45.289Z,2.05
2022-08-27T17:24:12.620Z,2.20
2022-08-27T17:26:39.246Z,2.28
2022-08-27T17:29:05.541Z,1.83
2022-08-27T17:31:36.825Z,2.17
2022-08-27T17:34:03.982Z,3.70
2022-08-27T17:36:30.852Z,2.58
2022-08-27T17:38:57.514Z,2.67
2022-08-27T17:41:23.835Z,7.40
2022-08-27T17:43:50.662Z,2.53
2022-08-27T17:46:17.094Z,2.47
2022-08-27T17:48:44.840Z,3.00
2022-08-27T17:51:13.689Z,2.13
2022-08-27T17:53:45.390Z,2.78
2022-08-27T17:56:13.967Z,2.35
2022-08-27T17:58:40.839Z,1.92
2022-08-27T18:01:11.429Z,2.38
2022-08-27T18:03:44.993Z,2.60
2022-08-27T18:06:14.982Z,2.85
2022-08-27T18:08:41.282Z,3.28
2022-08-27T18:11:07.630Z,3.38
2022-08-27T18:13:37.076Z,2.05
2022-08-27T18:16:06.623Z,2.70
2022-08-27T18:18:34.039Z,2.25
2022-08-27T18:21:00.874Z,3.15
2022-08-27T18:23:27.410Z,1.80
2022-08-27T18:25:53.814Z,2.70
2022-08-27T18:28:22.115Z,2.42
2022-08-27T18:30:49.422Z,2.45
2022-08-27T18:33:15.913Z,2.33
2022-08-27T18:35:42.671Z,2.90
2022-08-27T18:38:11.216Z,2.67
2022-08-27T18:40:40.315Z,2.50
2022-08-27T18:43:06.739Z,2.30
2022-08-27T18:45:36.460Z,3.70
2022-08-27T18:48:15.897Z,2.40
2022-08-27T18:50:48.067Z,3.30
2022-08-27T18:53:16.118Z,3.10
2022-08-27T18:55:42.435Z,3.22
2022-08-27T18:58:09.380Z,2.92
2022-08-27T19:00:37.129Z,2.97
2022-08-27T19:03:04.044Z,3.13
2022-08-27T19:05:30.423Z,2.58
2022-08-27T19:07:58.210Z,2.65
2022-08-27T19:10:25.121Z,2.85
2022-08-27T19:12:51.514Z,4.05
2022-08-27T19:15:18.177Z,2.45
2022-08-27T19:17:46.646Z,2.65
2022-08-27T19:20:13.066Z,2.65
2022-08-27T19:22:39.451Z,2.53
2022-08-27T19:25:07.752Z,2.95
2022-08-27T19:27:35.343Z,2.92
2022-08-27T19:30:01.857Z,2.85
2022-08-27T19:32:28.215Z,2.67
2022-08-27T19:34:54.603Z,3.17
2022-08-27T19:37:23.323Z,2.60
2022-08-27T19:39:52.494Z,2.78
2022-08-27T19:42:18.850Z,2.88
2022-08-27T19:44:45.611Z,3.22
2022-08-27T19:47:13.173Z,2.28
2022-08-27T19:49:40.305Z,2.20
2022-08-27T19:52:08.479Z,3.10
2022-08-27T19:54:43.175Z,2.30
2022-08-27T19:57:18.775Z,2.50
2022-08-27T19:59:45.679Z,2.50
2022-08-27T20:02:12.532Z,2.85
2022-08-27T20:04:55.811Z,2.97
2022-08-27T20:07:26.529Z,2.92
2022-08-27T20:09:55.809Z,3.92
2022-08-27T20:12:23.062Z,3.65
2022-08-27T20:14:51.693Z,3.35
2022-08-27T20:17:18.405Z,3.05
2022-08-27T20:19:45.044Z,3.47
2022-08-27T20:22:15.789Z,3.10
2022-08-27T20:24:42.132Z,3.30
2022-08-27T20:27:08.450Z,3.25
2022-08-27T20:29:34.750Z,3.70
2022-08-27T20:32:01.419Z,3.55
2022-08-27T20:34:29.496Z,4.10
2022-08-27T20:36:55.993Z,3.25
2022-08-27T20:39:22.330Z,3.47
2022-08-27T20:41:48.675Z,3.63
2022-08-27T20:44:16.538Z,3.60
2022-08-27T20:46:43.303Z,4.03
2022-08-27T20:49:15.292Z,3.17
2022-08-27T20:51:53.537Z,3.80
2022-08-27T20:54:27.956Z,3.40
2022-08-27T20:56:54.306Z,4.00
2022-08-27T20:59:39.116Z,4.22
2022-08-27T21:02:10.155Z,3.60
2022-08-27T21:04:38.260Z,3.30
2022-08-27T21:07:05.453Z,4.00
2022-08-27T21:09:32.356Z,4.28
2022-08-27T21:11:58.671Z,3.92
2022-08-27T21:14:25.349Z,4.25
2022-08-27T21:16:54.274Z,4.45
2022-08-27T21:19:20.676Z,4.13
2022-08-27T21:21:47.165Z,4.25
2022-08-27T21:24:13.643Z,4.28
2022-08-27T21:26:41.197Z,4.30
2022-08-27T21:29:07.519Z,4.07
2022-08-27T21:31:33.908Z,4.18
2022-08-27T21:34:00.259Z,4.75
2022-08-27T21:36:26.711Z,4.88
2022-08-27T21:38:53.130Z,4.55
2022-08-27T21:41:19.840Z,4.60
2022-08-27T21:43:46.187Z,4.40
2022-08-27T21:46:12.539Z,3.92
2022-08-27T21:48:39.398Z,4.07
2022-08-27T21:51:09.471Z,3.75
2022-08-27T21:53:35.934Z,4.03
2022-08-27T21:56:02.350Z,4.45
2022-08-27T21:58:28.679Z,4.13
2022-08-27T22:00:55.177Z,4.25
2022-08-27T22:03:22.656Z,3.85
2022-08-27T22:05:49.421Z,4.20
2022-08-27T22:08:16.942Z,4.18
2022-08-27T22:10:43.856Z,5.05
2022-08-27T22:13:10.630Z,5.07
2022-08-27T22:15:37.119Z,4.20
2022-08-27T22:18:04.569Z,3.90
2022-08-27T22:20:31.078Z,4.18
2022-08-27T22:22:58.742Z,3.90
2022-08-27T22:25:26.083Z,4.60
2022-08-27T22:27:52.902Z,4.07
2022-08-27T22:30:19.281Z,4.45
2022-08-27T22:32:45.759Z,4.25
2022-08-27T22:35:12.767Z,4.35
2022-08-27T22:37:39.243Z,4.15
2022-08-27T22:40:07.854Z,4.07
2022-08-27T22:42:44.851Z,4.28
2022-08-27T22:45:11.196Z,4.22
2022-08-27T22:47:38.276Z,4.68
2022-08-27T22:50:05.474Z,4.15
2022-08-27T22:52:31.845Z,3.85
2022-08-27T22:54:58.282Z,3.78
2022-08-27T22:57:24.666Z,4.28
2022-08-27T22:59:50.967Z,4.18
2022-08-27T23:02:17.342Z,4.40
2022-08-27T23:04:55.958Z,4.60
2022-08-27T23:07:23.138Z,4.57
2022-08-27T23:09:49.502Z,4.82
2022-08-27T23:12:15.903Z,4.60
2022-08-27T23:14:42.426Z,4.15
2022-08-27T23:17:08.767Z,4.78
2022-08-27T23:19:35.091Z,4.22
2022-08-27T23:22:01.374Z,4.40
2022-08-27T23:24:32.921Z,3.95
2022-08-27T23:27:17.902Z,3.35
2022-08-27T23:29:46.983Z,4.05
2022-08-27T23:32:14.124Z,3.70
2022-08-27T23:34:40.440Z,4.10
2022-08-27T23:37:06.740Z,4.70
2022-08-27T23:39:33.202Z,4.00
2022-08-27T23:41:59.516Z,3.80
2022-08-27T23:44:29.052Z,3.85
2022-08-27T23:46:55.460Z,3.85
2022-08-27T23:49:21.794Z,4.25
2022-08-27T23:51:48.534Z,4.05
2022-08-27T23:54:14.973Z,4.43
2022-08-27T23:56:41.262Z,3.97
2022-08-27T23:59:07.551Z,3.97
